createdAt,value
2023-02-09T00:01:34.917Z,43.33
2023-02-09T00:04:02.565Z,45.95
2023-02-09T00:06:30.318Z,46.10
2023-02-09T00:08:58.685Z,44.60
2023-02-09T00:11:46.790Z,42.63
2023-02-09T00:14:15.302Z,38.65
2023-02-09T00:16:42.357Z,38.22
2023-02-09T00:19:09.068Z,35.90
2023-02-09T00:21:35.739Z,34.50
2023-02-09T00:24:02.271Z,26.55
2023-02-09T00:26:28.783Z,25.95
2023-02-09T00:28:55.265Z,31.13
2023-02-09T00:31:21.972Z,35.33
2023-02-09T00:33:48.909Z,33.10
2023-02-09T00:36:16.197Z,36.55
2023-02-09T00:38:44.085Z,36.80
2023-02-09T00:41:12.059Z,36.15
2023-02-09T00:43:38.833Z,31.90
2023-02-09T00:46:05.443Z,33.92
2023-02-09T00:48:35.656Z,31.35
2023-02-09T00:51:02.518Z,31.88
2023-02-09T00:53:29.040Z,30.65
2023-02-09T00:55:55.489Z,27.10
2023-02-09T00:58:23.174Z,33.00
2023-02-09T01:00:50.017Z,33.78
2023-02-09T01:03:16.563Z,33.53
2023-02-09T01:05:43.386Z,30.10
2023-02-09T01:08:09.944Z,32.65
2023-02-09T01:10:37.954Z,34.88
2023-02-09T01:13:04.502Z,33.50
2023-02-09T01:15:30.958Z,37.80
2023-02-09T01:17:59.419Z,37.58
2023-02-09T01:20:26.249Z,34.97
2023-02-09T01:22:52.735Z,29.98
2023-02-09T01:25:19.273Z,30.27
2023-02-09T01:27:45.708Z,29.40
2023-02-09T01:30:12.815Z,28.27
2023-02-09T01:32:39.304Z,26.42
2023-02-09T01:35:06.296Z,25.50
2023-02-09T01:37:34.999Z,33.25
2023-02-09T01:40:02.132Z,27.63
2023-02-09T01:42:29.101Z,27.05
2023-02-09T01:45:20.312Z,29.90
2023-02-09T01:47:56.510Z,28.83
2023-02-09T01:50:24.731Z,27.27
2023-02-09T01:52:52.530Z,28.40
2023-02-09T01:55:24.157Z,25.23
2023-02-09T01:57:57.816Z,29.48
2023-02-09T02:00:25.774Z,26.70
2023-02-09T02:02:56.436Z,25.58
2023-02-09T02:05:24.031Z,28.38
2023-02-09T02:08:19.180Z,25.05
2023-02-09T02:10:46.141Z,25.75
2023-02-09T02:13:12.738Z,30.85
2023-02-09T02:16:03.620Z,25.73
2023-02-09T02:19:14.999Z,24.35
2023-02-09T02:21:56.690Z,26.48
2023-02-09T02:24:32.043Z,31.38
2023-02-09T02:27:02.055Z,26.30
2023-02-09T02:29:57.376Z,27.75
2023-02-09T02:33:08.772Z,26.02
2023-02-09T02:35:38.120Z,24.30
2023-02-09T02:38:53.711Z,24.00
2023-02-09T02:41:50.584Z,25.05
2023-02-09T02:44:18.802Z,24.42
2023-02-09T02:46:52.934Z,23.73
2023-02-09T02:49:23.223Z,23.95
2023-02-09T02:51:53.690Z,20.02
2023-02-09T02:54:25.872Z,21.25
2023-02-09T02:56:57.559Z,22.35
2023-02-09T02:59:42.652Z,23.98
2023-02-09T03:02:14.367Z,25.15
2023-02-09T03:04:42.568Z,25.52
2023-02-09T03:07:09.537Z,24.73
2023-02-09T03:09:36.358Z,26.92
2023-02-09T03:12:18.027Z,24.40
2023-02-09T03:15:08.925Z,25.33
2023-02-09T03:17:52.699Z,25.23
2023-02-09T03:20:28.372Z,24.60
2023-02-09T03:23:00.371Z,25.20
2023-02-09T03:25:34.648Z,24.20
2023-02-09T03:28:01.113Z,25.45
2023-02-09T03:30:33.823Z,27.25
2023-02-09T03:33:02.325Z,25.40
2023-02-09T03:35:38.699Z,25.58
2023-02-09T03:38:06.621Z,22.33
2023-02-09T03:40:37.535Z,20.67
2023-02-09T03:43:04.056Z,26.20
2023-02-09T03:45:30.510Z,25.13
2023-02-09T03:47:56.941Z,24.67
2023-02-09T03:50:23.749Z,26.02
2023-02-09T03:52:50.706Z,27.40
2023-02-09T03:55:17.288Z,28.25
2023-02-09T03:57:43.721Z,27.73
2023-02-09T04:00:10.946Z,24.73
2023-02-09T04:02:37.494Z,26.48
2023-02-09T04:05:05.821Z,28.65
2023-02-09T04:07:32.718Z,28.35
2023-02-09T04:09:59.320Z,26.58
2023-02-09T04:12:25.860Z,26.30
2023-02-09T04:14:52.345Z,25.70
2023-02-09T04:17:18.838Z,25.98
2023-02-09T04:19:45.257Z,27.52
2023-02-09T04:22:11.791Z,24.67
2023-02-09T04:24:38.306Z,25.08
2023-02-09T04:27:06.381Z,25.58
2023-02-09T04:29:32.889Z,22.23
2023-02-09T04:31:59.553Z,23.67
2023-02-09T04:34:26.177Z,27.58
2023-02-09T04:36:52.704Z,24.42
2023-02-09T04:39:19.170Z,30.17
2023-02-09T04:41:45.721Z,23.83
2023-02-09T04:44:13.246Z,22.90
2023-02-09T04:46:39.719Z,26.88
2023-02-09T04:49:06.192Z,25.42
2023-02-09T04:51:32.720Z,27.00
2023-02-09T04:53:59.181Z,25.50
2023-02-09T04:56:28.383Z,23.63
2023-02-09T04:59:13.379Z,26.02
2023-02-09T05:01:39.921Z,23.25
2023-02-09T05:04:06.453Z,28.00
2023-02-09T05:06:32.965Z,25.48
2023-02-09T05:08:59.444Z,27.75
2023-02-09T05:11:26.064Z,28.25
2023-02-09T05:13:52.672Z,27.30
2023-02-09T05:16:19.208Z,26.17
2023-02-09T05:18:45.825Z,29.08
2023-02-09T05:21:14.191Z,26.48
2023-02-09T05:23:40.933Z,26.27
2023-02-09T05:26:07.414Z,26.83
2023-02-09T05:28:33.911Z,29.38
2023-02-09T05:31:00.451Z,32.85
2023-02-09T05:33:27.067Z,31.70
2023-02-09T05:35:55.729Z,28.45
2023-02-09T05:38:22.256Z,30.52
2023-02-09T05:40:49.071Z,32.75
2023-02-09T05:43:15.982Z,28.40
2023-02-09T05:45:42.611Z,30.52
2023-02-09T05:48:09.123Z,29.27
2023-02-09T05:50:36.014Z,30.52
2023-02-09T05:53:02.612Z,33.85
2023-02-09T05:55:29.250Z,32.53
2023-02-09T05:57:55.849Z,30.83
2023-02-09T06:00:24.944Z,35.50
2023-02-09T06:02:54.811Z,30.25
2023-02-09T06:05:21.949Z,32.50
2023-02-09T06:07:48.988Z,31.83
2023-02-09T06:10:17.047Z,33.85
2023-02-09T06:12:43.612Z,34.70
2023-02-09T06:15:10.589Z,32.58
2023-02-09T06:17:37.097Z,33.53
2023-02-09T06:20:03.884Z,32.00
2023-02-09T06:22:31.748Z,31.38
2023-02-09T06:24:58.329Z,32.55
2023-02-09T06:27:24.916Z,34.20
2023-02-09T06:29:51.414Z,30.40
2023-02-09T06:32:17.933Z,34.40
2023-02-09T06:34:44.508Z,30.75
2023-02-09T06:37:11.061Z,33.63
2023-02-09T06:39:37.501Z,30.65
2023-02-09T06:42:04.024Z,31.80
2023-02-09T06:44:30.509Z,29.00
2023-02-09T06:46:57.029Z,29.30
2023-02-09T06:49:25.289Z,31.30
2023-02-09T06:51:52.294Z,31.45
2023-02-09T06:54:20.037Z,29.65
2023-02-09T06:56:46.752Z,31.50
2023-02-09T06:59:14.731Z,27.63
2023-02-09T07:01:41.375Z,32.10
2023-02-09T07:04:11.015Z,28.85
2023-02-09T07:06:37.510Z,27.23
2023-02-09T07:09:04.195Z,27.95
2023-02-09T07:11:30.705Z,27.25
2023-02-09T07:13:57.257Z,26.35
2023-02-09T07:16:23.902Z,25.17
2023-02-09T07:18:50.449Z,25.45
2023-02-09T07:21:18.624Z,26.25
2023-02-09T07:23:46.124Z,25.25
2023-02-09T07:26:15.393Z,26.55
2023-02-09T07:28:42.352Z,27.35
2023-02-09T07:31:15.102Z,25.02
2023-02-09T07:33:42.025Z,25.17
2023-02-09T07:36:10.650Z,23.58
2023-02-09T07:38:38.460Z,19.67
2023-02-09T07:41:07.062Z,23.48
2023-02-09T07:43:34.010Z,21.75
2023-02-09T07:46:04.977Z,20.33
2023-02-09T07:48:32.616Z,22.05
2023-02-09T07:51:00.223Z,21.02
2023-02-09T07:53:26.864Z,21.25
2023-02-09T07:55:53.657Z,22.02
2023-02-09T07:58:22.928Z,18.85
2023-02-09T08:00:50.872Z,18.08
2023-02-09T08:03:19.889Z,20.80
2023-02-09T08:06:02.831Z,20.33
2023-02-09T08:08:29.574Z,23.77
2023-02-09T08:10:58.263Z,21.77
2023-02-09T08:13:28.515Z,20.95
2023-02-09T08:16:00.747Z,21.77
2023-02-09T08:18:52.902Z,23.20
2023-02-09T08:23:51.347Z,21.02
2023-02-09T08:26:18.792Z,22.35
2023-02-09T08:28:46.180Z,23.15
2023-02-09T08:31:17.955Z,20.23
2023-02-09T08:36:19.086Z,20.70
2023-02-09T08:38:46.074Z,19.60
2023-02-09T08:41:15.214Z,26.55
2023-02-09T08:43:41.778Z,22.50
2023-02-09T08:46:12.012Z,22.45
2023-02-09T08:48:41.410Z,21.13
2023-02-09T08:51:09.241Z,23.30
2023-02-09T08:53:39.137Z,20.50
2023-02-09T08:56:06.137Z,21.98
2023-02-09T08:58:33.528Z,22.42
2023-02-09T09:01:00.489Z,21.58
2023-02-09T09:03:31.526Z,23.85
2023-02-09T09:06:06.762Z,24.40
2023-02-09T09:08:35.189Z,23.35
2023-02-09T09:11:02.249Z,22.50
2023-02-09T09:13:29.150Z,22.63
2023-02-09T09:15:56.246Z,19.95
2023-02-09T09:18:26.565Z,20.92
2023-02-09T09:20:53.372Z,20.13
2023-02-09T09:23:24.502Z,22.13
2023-02-09T09:25:51.158Z,22.30
2023-02-09T09:28:17.849Z,23.95
2023-02-09T09:30:44.433Z,21.45
2023-02-09T09:33:10.965Z,25.17
2023-02-09T09:35:40.978Z,24.55
2023-02-09T09:38:07.424Z,22.20
2023-02-09T09:40:37.159Z,20.98
2023-02-09T09:43:07.724Z,26.42
2023-02-09T09:45:38.662Z,21.58
2023-02-09T09:48:17.992Z,21.03
2023-02-09T09:50:46.099Z,19.70
2023-02-09T09:53:36.153Z,21.17
2023-02-09T09:56:06.322Z,22.05
2023-02-09T09:58:37.692Z,20.65
2023-02-09T10:01:04.494Z,20.10
2023-02-09T10:03:30.980Z,20.30
2023-02-09T10:06:10.520Z,21.20
2023-02-09T10:08:55.306Z,17.67
2023-02-09T10:11:29.204Z,22.92
2023-02-09T10:13:57.236Z,20.92
2023-02-09T10:16:27.349Z,21.52
2023-02-09T10:18:57.339Z,19.02
2023-02-09T10:21:26.633Z,19.45
2023-02-09T10:24:02.344Z,18.27
2023-02-09T10:26:32.295Z,20.63
2023-02-09T10:29:07.681Z,20.50
2023-02-09T10:31:40.088Z,21.35
2023-02-09T10:34:18.640Z,19.85
2023-02-09T10:36:51.319Z,21.77
2023-02-09T10:39:22.542Z,19.25
2023-02-09T10:41:51.981Z,20.60
2023-02-09T10:44:30.503Z,24.27
2023-02-09T10:47:27.904Z,18.70
2023-02-09T10:49:54.329Z,21.90
2023-02-09T10:52:24.718Z,20.73
2023-02-09T10:55:02.567Z,21.00
2023-02-09T10:57:35.567Z,21.88
2023-02-09T11:00:27.059Z,20.50
2023-02-09T11:02:57.663Z,21.23
2023-02-09T11:05:33.623Z,24.38
2023-02-09T11:08:22.665Z,22.98
2023-02-09T11:11:09.378Z,21.67
2023-02-09T11:13:36.819Z,21.17
2023-02-09T11:16:37.859Z,24.65
2023-02-09T11:19:22.810Z,22.77
2023-02-09T11:22:01.097Z,27.65
2023-02-09T11:25:01.680Z,23.80
2023-02-09T11:27:36.998Z,27.83
2023-02-09T11:30:17.965Z,27.85
2023-02-09T11:33:22.095Z,24.75
2023-02-09T11:35:59.395Z,25.38
2023-02-09T11:39:00.297Z,25.92
2023-02-09T11:41:58.895Z,24.25
2023-02-09T11:44:31.253Z,27.70
2023-02-09T11:47:06.070Z,23.50
2023-02-09T11:49:45.543Z,22.42
2023-02-09T11:52:18.871Z,23.83
2023-02-09T11:54:50.309Z,18.52
2023-02-09T11:57:35.948Z,21.63
2023-02-09T12:00:07.184Z,23.00
2023-02-09T12:02:47.370Z,18.48
2023-02-09T12:05:17.473Z,19.48
2023-02-09T12:08:12.726Z,23.55
2023-02-09T12:11:04.528Z,18.65
2023-02-09T12:14:08.914Z,20.70
2023-02-09T12:16:41.236Z,21.48
2023-02-09T12:19:23.836Z,20.45
2023-02-09T12:21:52.278Z,20.45
2023-02-09T12:24:33.919Z,20.40
2023-02-09T12:27:00.726Z,20.77
2023-02-09T12:29:30.486Z,17.52
2023-02-09T12:32:08.898Z,18.38
2023-02-09T12:34:35.344Z,18.83
2023-02-09T12:37:29.078Z,20.15
2023-02-09T12:40:22.523Z,19.75
2023-02-09T12:42:51.929Z,20.27
2023-02-09T12:45:38.455Z,21.40
2023-02-09T12:48:07.944Z,20.60
2023-02-09T12:50:46.249Z,19.40
2023-02-09T12:53:21.595Z,20.30
2023-02-09T12:56:07.113Z,21.63
2023-02-09T12:58:36.169Z,23.52
2023-02-09T13:01:03.104Z,26.33
2023-02-09T13:03:31.068Z,29.23
2023-02-09T13:06:01.695Z,22.02
2023-02-09T13:08:34.277Z,20.83
2023-02-09T13:11:30.208Z,18.00
2023-02-09T13:14:03.308Z,19.02
2023-02-09T13:16:29.742Z,21.50
2023-02-09T13:19:47.002Z,26.42
2023-02-09T13:22:39.123Z,21.27
2023-02-09T13:25:29.952Z,20.42
2023-02-09T13:27:56.499Z,22.45
2023-02-09T13:30:32.879Z,21.85
2023-02-09T13:33:17.989Z,21.85
2023-02-09T13:36:00.466Z,23.20
2023-02-09T13:38:33.906Z,20.38
2023-02-09T13:41:00.823Z,23.75
2023-02-09T13:43:29.343Z,23.38
2023-02-09T13:45:58.530Z,26.33
2023-02-09T13:48:37.685Z,25.20
2023-02-09T13:51:18.974Z,20.95
2023-02-09T13:54:02.345Z,22.38
2023-02-09T13:56:31.550Z,20.02
2023-02-09T13:58:58.985Z,22.05
2023-02-09T14:01:35.567Z,20.20
2023-02-09T14:04:17.094Z,25.27
2023-02-09T14:06:54.966Z,26.35
2023-02-09T14:09:26.427Z,21.23
2023-02-09T14:11:57.829Z,21.92
2023-02-09T14:14:28.465Z,23.92
2023-02-09T14:17:25.888Z,20.83
2023-02-09T14:19:54.478Z,20.90
2023-02-09T14:22:38.551Z,20.42
2023-02-09T14:25:14.228Z,22.23
2023-02-09T14:27:45.613Z,24.15
2023-02-09T14:30:16.940Z,29.15
2023-02-09T14:32:48.155Z,27.13
2023-02-09T14:35:25.247Z,25.05
2023-02-09T14:37:54.359Z,27.02
2023-02-09T14:40:26.591Z,24.33
2023-02-09T14:43:11.324Z,25.50
2023-02-09T14:45:44.414Z,23.60
2023-02-09T14:48:22.833Z,21.00
2023-02-09T14:50:52.817Z,24.50
2023-02-09T14:53:21.037Z,25.13
2023-02-09T14:55:48.394Z,25.77
2023-02-09T14:58:23.130Z,24.80
2023-02-09T15:00:50.885Z,24.63
2023-02-09T15:03:17.412Z,23.83
2023-02-09T15:05:44.580Z,23.35
2023-02-09T15:08:16.610Z,28.80
2023-02-09T15:13:13.408Z,22.20
2023-02-09T15:15:40.028Z,27.75
2023-02-09T15:18:07.055Z,24.77
2023-02-09T15:20:37.125Z,24.75
2023-02-09T15:23:03.646Z,26.35
2023-02-09T15:25:30.279Z,23.10
2023-02-09T15:27:58.729Z,19.88
2023-02-09T15:30:30.015Z,28.13
2023-02-09T15:32:56.630Z,27.48
2023-02-09T15:35:25.749Z,28.17
2023-02-09T15:37:59.469Z,38.95
2023-02-09T15:40:53.374Z,28.67
2023-02-09T15:43:46.198Z,25.60
2023-02-09T15:46:31.464Z,27.55
2023-02-09T15:48:58.736Z,42.08
2023-02-09T15:51:28.519Z,33.92
2023-02-09T15:53:57.693Z,50.80
2023-02-09T15:56:24.163Z,128.68
2023-02-09T15:58:51.719Z,31.60
2023-02-09T16:01:19.017Z,33.10
2023-02-09T16:03:46.278Z,37.78
2023-02-09T16:06:21.685Z,28.13
2023-02-09T16:08:48.887Z,28.05
2023-02-09T16:11:23.919Z,30.42
2023-02-09T16:13:51.788Z,26.58
2023-02-09T16:16:18.473Z,29.00
2023-02-09T16:18:46.834Z,27.58
2023-02-09T16:21:24.856Z,31.55
2023-02-09T16:23:54.361Z,42.88
2023-02-09T16:26:21.080Z,29.75
2023-02-09T16:28:47.571Z,28.85
2023-02-09T16:31:14.305Z,26.23
2023-02-09T16:33:42.913Z,23.85
2023-02-09T16:36:16.513Z,25.48
2023-02-09T16:38:43.244Z,30.20
2023-02-09T16:41:33.817Z,26.63
2023-02-09T16:44:02.360Z,33.20
2023-02-09T16:46:30.672Z,28.58
2023-02-09T16:48:58.556Z,43.90
2023-02-09T16:51:25.124Z,25.42
2023-02-09T16:53:56.619Z,25.15
2023-02-09T16:56:25.999Z,21.80
2023-02-09T16:58:52.476Z,25.70
2023-02-09T17:01:22.100Z,25.50
2023-02-09T17:03:50.911Z,30.88
2023-02-09T17:06:22.495Z,23.83
2023-02-09T17:08:49.692Z,23.83
2023-02-09T17:11:23.671Z,23.23
2023-02-09T17:13:50.609Z,24.55
2023-02-09T17:16:20.753Z,27.25
2023-02-09T17:18:53.501Z,27.92
2023-02-09T17:21:28.004Z,28.25
2023-02-09T17:23:59.472Z,26.42
2023-02-09T17:26:26.697Z,28.63
2023-02-09T17:28:53.752Z,29.75
2023-02-09T17:31:26.197Z,29.67
2023-02-09T17:33:55.930Z,30.77
2023-02-09T17:36:28.340Z,31.40
2023-02-09T17:38:56.840Z,52.95
2023-02-09T17:41:31.190Z,31.27
2023-02-09T17:44:19.602Z,38.95
2023-02-09T17:46:52.944Z,39.78
2023-02-09T17:49:19.493Z,39.10
2023-02-09T17:51:48.365Z,29.30
2023-02-09T17:54:19.904Z,32.13
2023-02-09T17:56:47.204Z,29.42
2023-02-09T17:59:16.402Z,32.35
2023-02-09T18:01:45.776Z,33.05
2023-02-09T18:04:17.908Z,29.40
2023-02-09T18:06:44.413Z,32.30
2023-02-09T18:09:12.984Z,31.35
2023-02-09T18:11:45.823Z,26.60
2023-02-09T18:14:13.692Z,32.40
2023-02-09T18:16:41.284Z,27.17
2023-02-09T18:19:08.527Z,28.70
2023-02-09T18:21:35.403Z,28.88
2023-02-09T18:24:02.001Z,27.85
2023-02-09T18:26:28.521Z,26.35
2023-02-09T18:28:55.087Z,29.58
2023-02-09T18:31:21.614Z,24.85
2023-02-09T18:33:48.181Z,25.25
2023-02-09T18:36:15.103Z,28.52
2023-02-09T18:38:41.675Z,26.63
2023-02-09T18:41:16.910Z,26.23
2023-02-09T18:43:44.712Z,28.27
2023-02-09T18:46:14.574Z,30.80
2023-02-09T18:48:41.259Z,29.15
2023-02-09T18:51:09.061Z,27.58
2023-02-09T18:53:37.413Z,29.05
2023-02-09T18:56:04.283Z,26.85
2023-02-09T18:58:30.751Z,31.35
2023-02-09T19:00:57.669Z,30.92
2023-02-09T19:03:24.206Z,29.90
2023-02-09T19:05:51.826Z,29.90
2023-02-09T19:08:18.266Z,36.05
2023-02-09T19:10:44.837Z,30.55
2023-02-09T19:13:11.369Z,32.08
2023-02-09T19:15:39.019Z,30.42
2023-02-09T19:18:06.111Z,30.60
2023-02-09T19:20:34.219Z,30.60
2023-02-09T19:23:02.376Z,30.33
2023-02-09T19:25:29.766Z,34.67
2023-02-09T19:27:57.084Z,31.15
2023-02-09T19:30:24.884Z,34.10
2023-02-09T19:32:55.693Z,39.22
2023-02-09T19:35:22.852Z,38.53
2023-02-09T19:37:57.065Z,36.15
2023-02-09T19:40:33.611Z,34.88
2023-02-09T19:43:00.121Z,35.00
2023-02-09T19:45:26.555Z,37.50
2023-02-09T19:47:53.083Z,34.38
2023-02-09T19:50:19.646Z,51.72
2023-02-09T19:52:50.398Z,37.78
2023-02-09T19:55:16.949Z,41.83
2023-02-09T19:57:43.566Z,34.90
2023-02-09T20:00:15.735Z,39.42
2023-02-09T20:02:42.270Z,35.20
2023-02-09T20:05:08.831Z,37.33
2023-02-09T20:07:35.665Z,37.33
2023-02-09T20:10:02.168Z,36.70
2023-02-09T20:12:28.689Z,38.35
2023-02-09T20:14:55.258Z,37.45
2023-02-09T20:17:26.630Z,35.97
2023-02-09T20:19:53.197Z,35.17
2023-02-09T20:22:20.302Z,37.03
2023-02-09T20:24:46.786Z,39.90
2023-02-09T20:27:13.269Z,32.45
2023-02-09T20:29:39.845Z,34.95
2023-02-09T20:32:06.445Z,35.58
2023-02-09T20:34:33.111Z,34.38
2023-02-09T20:36:59.776Z,36.45
2023-02-09T20:39:26.350Z,33.22
2023-02-09T20:42:16.527Z,32.53
2023-02-09T20:45:02.164Z,31.92
2023-02-09T20:47:30.083Z,34.20
2023-02-09T20:49:59.977Z,37.35
2023-02-09T20:52:28.175Z,33.25
2023-02-09T20:54:55.536Z,38.47
2023-02-09T20:57:29.138Z,33.13
2023-02-09T20:59:57.405Z,33.08
2023-02-09T21:02:24.142Z,36.33
2023-02-09T21:04:51.132Z,34.70
2023-02-09T21:07:20.033Z,43.38
2023-02-09T21:09:47.480Z,40.17
2023-02-09T21:12:14.376Z,36.60
2023-02-09T21:14:44.890Z,41.85
2023-02-09T21:17:11.468Z,35.20
2023-02-09T21:19:38.068Z,36.00
2023-02-09T21:22:07.329Z,38.05
2023-02-09T21:24:33.941Z,35.65
2023-02-09T21:27:00.830Z,32.55
2023-02-09T21:29:29.150Z,41.17
2023-02-09T21:31:56.724Z,40.88
2023-02-09T21:34:23.273Z,40.40
2023-02-09T21:36:52.899Z,34.50
2023-02-09T21:39:19.367Z,36.78
2023-02-09T21:42:04.526Z,36.22
2023-02-09T21:44:37.398Z,35.55
2023-02-09T21:47:04.202Z,34.28
2023-02-09T21:49:31.858Z,36.05
2023-02-09T21:51:59.252Z,36.75
2023-02-09T21:54:28.228Z,36.15
2023-02-09T21:56:55.523Z,38.53
2023-02-09T21:59:22.007Z,39.42
2023-02-09T22:01:48.427Z,39.88
2023-02-09T22:04:17.763Z,38.53
2023-02-09T22:06:47.070Z,39.35
2023-02-09T22:09:13.989Z,43.00
2023-02-09T22:11:40.493Z,41.92
2023-02-09T22:14:07.588Z,41.33
2023-02-09T22:16:34.116Z,40.28
2023-02-09T22:19:00.687Z,44.17
2023-02-09T22:21:27.292Z,44.55
2023-02-09T22:23:54.536Z,42.40
2023-02-09T22:26:23.575Z,43.95
2023-02-09T22:28:53.321Z,48.22
2023-02-09T22:31:21.393Z,44.47
2023-02-09T22:33:48.505Z,47.65
2023-02-09T22:36:21.748Z,48.95
2023-02-09T22:38:48.254Z,47.95
2023-02-09T22:41:23.163Z,52.22
2023-02-09T22:43:53.647Z,46.13
2023-02-09T22:46:22.179Z,46.75
2023-02-09T22:48:53.528Z,43.80
2023-02-09T22:51:20.987Z,51.38
2023-02-09T22:53:49.311Z,46.92
2023-02-09T22:56:16.295Z,50.22
2023-02-09T22:58:43.070Z,48.97
2023-02-09T23:01:10.411Z,51.90
2023-02-09T23:03:37.203Z,56.03
2023-02-09T23:06:11.181Z,50.60
2023-02-09T23:08:37.652Z,42.80
2023-02-09T23:11:10.898Z,45.17
2023-02-09T23:13:37.532Z,52.95
2023-02-09T23:16:08.227Z,52.20
2023-02-09T23:18:37.556Z,50.67
2023-02-09T23:21:08.087Z,51.72
2023-02-09T23:23:34.861Z,52.40
2023-02-09T23:26:04.701Z,54.45
2023-02-09T23:28:33.229Z,53.83
2023-02-09T23:31:04.896Z,56.67
2023-02-09T23:33:34.680Z,52.90
2023-02-09T23:36:05.525Z,55.17
2023-02-09T23:38:34.697Z,54.65
2023-02-09T23:41:14.957Z,61.20
2023-02-09T23:43:41.923Z,62.67
2023-02-09T23:46:12.058Z,64.30
2023-02-09T23:48:38.638Z,66.40
2023-02-09T23:51:09.177Z,63.72
2023-02-09T23:53:35.996Z,64.78
2023-02-09T23:56:04.059Z,67.80
2023-02-09T23:58:40.163Z,72.55
